Time;durP1;ratioP1;P1;durP2;ratioP2;P2;SDS_P1;SDS_P2;PMS_P1;PMS_P2;Temp;Humidity;BMP_temperature;BMP_pressure;BME280_temperature;BME280_humidity;BME280_pressure;Samples;Min_cycle;Max_cycle;Signal;HPM_P1;HPM_P2
2023/12/28 00:00:17;;;;;;;1.05;1.05;;;8.80;99.90;;;;;;4993001;28;20046;-67
2023/12/28 00:02:42;;;;;;;1.20;1.10;;;8.80;99.90;;;;;;4993076;28;20038;-67
2023/12/28 00:05:08;;;;;;;1.10;1.00;;;9.00;99.90;;;;;;4993030;28;20046;-67
2023/12/28 00:07:34;;;;;;;1.55;1.17;;;9.10;99.90;;;;;;4992704;28;20034;-67
2023/12/28 00:09:59;;;;;;;0.88;0.88;;;9.00;99.90;;;;;;4992974;28;20066;-67
2023/12/28 00:12:25;;;;;;;1.20;0.98;;;9.10;99.90;;;;;;4992637;28;20760;-67
2023/12/28 00:14:51;;;;;;;0.80;0.80;;;9.00;99.90;;;;;;4992651;28;20048;-67
2023/12/28 00:17:17;;;;;;;1.13;1.05;;;9.00;99.90;;;;;;4992922;28;20042;-67
2023/12/28 00:19:42;;;;;;;0.98;0.98;;;9.10;99.90;;;;;;4992882;28;20043;-67
2023/12/28 00:22:08;;;;;;;0.95;0.90;;;9.10;99.90;;;;;;4992943;28;20073;-67
2023/12/28 00:24:33;;;;;;;1.08;0.93;;;9.10;99.90;;;;;;4992831;28;20121;-67
2023/12/28 00:26:59;;;;;;;1.10;1.00;;;9.10;99.90;;;;;;4992812;28;20576;-67
2023/12/28 00:29:25;;;;;;;1.20;1.10;;;9.20;99.90;;;;;;4992575;28;20122;-67
2023/12/28 00:31:50;;;;;;;0.93;0.90;;;9.10;99.90;;;;;;4992814;28;20034;-67
2023/12/28 00:34:16;;;;;;;0.77;0.77;;;9.10;99.90;;;;;;4974843;28;20521;-67
2023/12/28 00:36:42;;;;;;;0.82;0.82;;;9.10;99.90;;;;;;4992796;28;20049;-68
2023/12/28 00:39:08;;;;;;;0.90;0.90;;;9.10;99.90;;;;;;4992662;28;20034;-67
2023/12/28 00:41:33;;;;;;;0.90;0.90;;;9.10;99.90;;;;;;4992673;28;20105;-67
2023/12/28 00:44:00;;;;;;;1.38;1.10;;;9.10;99.90;;;;;;4995301;28;20823;-68
2023/12/28 00:46:26;;;;;;;1.20;0.88;;;9.10;99.90;;;;;;4996697;28;20074;-68
2023/12/28 00:48:51;;;;;;;1.63;1.27;;;9.10;99.90;;;;;;4996544;28;20557;-67
2023/12/28 00:51:17;;;;;;;1.10;1.00;;;9.20;99.90;;;;;;4996426;28;20117;-67
2023/12/28 00:53:43;;;;;;;1.00;0.98;;;9.20;99.90;;;;;;4996403;28;20394;-67
2023/12/28 00:56:10;;;;;;;0.88;0.88;;;9.30;99.90;;;;;;4996475;28;20044;-67
2023/12/28 00:58:43;;;;;;;1.05;0.90;;;9.60;99.90;;;;;;4996061;28;20057;-67
2023/12/28 01:01:09;;;;;;;0.98;0.88;;;9.30;99.90;;;;;;4996340;28;20050;-67
2023/12/28 01:03:35;;;;;;;2.13;1.40;;;9.30;99.90;;;;;;4996288;28;20042;-67
2023/12/28 01:06:01;;;;;;;1.27;0.98;;;9.30;99.90;;;;;;4978575;28;20129;-68
2023/12/28 01:08:27;;;;;;;0.80;0.80;;;9.50;99.90;;;;;;4995858;28;20405;-67
2023/12/28 01:10:53;;;;;;;2.20;1.40;;;9.20;99.90;;;;;;4996024;28;20034;-68
2023/12/28 01:13:18;;;;;;;0.82;0.80;;;9.30;99.90;;;;;;4996077;28;20043;-68
2023/12/28 01:15:44;;;;;;;1.15;0.95;;;9.30;99.90;;;;;;4995884;28;20118;-68
2023/12/28 01:18:10;;;;;;;0.90;0.90;;;9.30;99.90;;;;;;4995667;28;20038;-69
2023/12/28 01:20:35;;;;;;;1.48;1.15;;;9.30;99.90;;;;;;4995935;28;20038;-68
2023/12/28 01:23:02;;;;;;;1.83;1.30;;;9.30;99.90;;;;;;4978156;28;20057;-68
2023/12/28 01:25:27;;;;;;;1.02;0.93;;;9.40;99.90;;;;;;4995466;28;20140;-68
2023/12/28 01:27:53;;;;;;;1.83;1.17;;;9.40;99.90;;;;;;4995845;28;20065;-68
2023/12/28 01:30:18;;;;;;;1.42;1.30;;;9.30;99.90;;;;;;4995420;28;20042;-67
2023/12/28 01:32:44;;;;;;;2.38;1.48;;;9.30;99.90;;;;;;4995457;28;20050;-68
2023/12/28 01:35:10;;;;;;;1.38;1.13;;;9.30;99.90;;;;;;4995588;28;20409;-68
2023/12/28 01:37:36;;;;;;;1.08;0.98;;;9.30;99.90;;;;;;4995629;28;20042;-68
2023/12/28 01:40:02;;;;;;;1.38;1.10;;;9.20;99.90;;;;;;4995321;28;20463;-68
2023/12/28 01:42:30;;;;;;;1.80;1.05;;;9.20;99.90;;;;;;4995499;28;20042;-68
2023/12/28 01:44:57;;;;;;;1.23;1.10;;;9.20;99.90;;;;;;4995458;28;20046;-68
2023/12/28 01:47:24;;;;;;;1.42;1.20;;;9.20;99.90;;;;;;4995484;28;20041;-68
2023/12/28 01:49:50;;;;;;;1.10;1.05;;;9.20;99.90;;;;;;4995387;28;20046;-68
2023/12/28 01:52:16;;;;;;;2.05;1.08;;;9.20;99.90;;;;;;4995400;28;20523;-68
2023/12/28 01:54:42;;;;;;;1.48;1.15;;;9.10;99.90;;;;;;4994249;28;20081;-67
2023/12/28 01:57:08;;;;;;;2.13;1.00;;;9.20;99.90;;;;;;4994959;28;20035;-68
2023/12/28 01:59:34;;;;;;;1.75;1.02;;;9.20;99.90;;;;;;4977661;28;20061;-68
2023/12/28 02:02:00;;;;;;;1.23;1.13;;;9.10;99.90;;;;;;4995172;28;20042;-68
2023/12/28 02:04:28;;;;;;;1.08;1.00;;;9.30;99.90;;;;;;4994846;28;20442;-67
2023/12/28 02:06:57;;;;;;;1.83;1.20;;;9.10;99.90;;;;;;4995134;28;20038;-68
2023/12/28 02:09:23;;;;;;;0.80;0.80;;;9.10;99.90;;;;;;4977340;28;20489;-68
2023/12/28 02:11:49;;;;;;;1.42;0.98;;;9.10;99.90;;;;;;4994825;28;20034;-68
2023/12/28 02:14:14;;;;;;;1.52;0.93;;;9.10;99.90;;;;;;4994845;28;20482;-68
2023/12/28 02:16:47;;;;;;;1.63;1.20;;;9.10;99.90;;;;;;4995132;28;20042;-67
2023/12/28 02:19:50;;;;;;;1.20;0.88;;;9.10;99.90;;;;;;4994903;28;20117;-67
2023/12/28 02:22:16;;;;;;;1.60;1.20;;;9.10;99.90;;;;;;4977088;28;20046;-67
2023/12/28 02:25:05;;;;;;;2.05;1.20;;;9.10;99.90;;;;;;4994451;28;20046;-66
2023/12/28 02:27:31;;;;;;;1.10;1.00;;;9.10;99.90;;;;;;4994728;28;20118;-66
2023/12/28 02:29:57;;;;;;;0.98;0.82;;;9.20;99.90;;;;;;4994675;28;20086;-66
2023/12/28 02:32:34;;;;;;;1.45;1.00;;;9.20;99.90;;;;;;4994235;28;20046;-65
2023/12/28 02:35:08;;;;;;;1.20;1.10;;;9.20;99.90;;;;;;4976779;28;20054;-65
2023/12/28 02:37:34;;;;;;;3.35;1.10;;;9.20;99.90;;;;;;4994520;28;20082;-66
2023/12/28 02:40:01;;;;;;;2.20;1.30;;;9.20;99.90;;;;;;4994515;28;20103;-65
2023/12/28 02:42:27;;;;;;;1.13;0.98;;;9.10;99.90;;;;;;4994354;28;20193;-66
2023/12/28 02:44:52;;;;;;;2.63;1.10;;;9.20;99.90;;;;;;4994363;28;20169;-66
2023/12/28 02:47:18;;;;;;;1.48;1.23;;;9.30;99.90;;;;;;4994014;28;20061;-66
2023/12/28 02:49:44;;;;;;;1.88;1.30;;;9.40;99.90;;;;;;4994214;28;20042;-67
2023/12/28 02:52:09;;;;;;;1.35;1.15;;;9.40;99.90;;;;;;4994232;28;20125;-67
2023/12/28 02:54:35;;;;;;;1.90;1.33;;;9.40;99.90;;;;;;4994054;28;20470;-68
2023/12/28 02:57:00;;;;;;;2.42;1.15;;;9.50;99.90;;;;;;4993864;28;20121;-66
2023/12/28 02:59:26;;;;;;;4.13;1.40;;;9.50;99.90;;;;;;4994038;28;20049;-66
2023/12/28 03:01:52;;;;;;;1.38;0.88;;;9.50;99.90;;;;;;4994029;28;20042;-66
2023/12/28 03:04:17;;;;;;;1.27;1.00;;;9.60;99.90;;;;;;4993967;28;20541;-66
2023/12/28 03:06:46;;;;;;;2.35;1.38;;;9.70;99.90;;;;;;4993511;28;20433;-66
2023/12/28 03:09:12;;;;;;;1.98;1.10;;;9.70;99.90;;;;;;4993640;28;20077;-66
2023/12/28 03:11:37;;;;;;;1.88;1.52;;;9.60;99.90;;;;;;4992357;28;20074;-66
2023/12/28 03:14:03;;;;;;;2.10;1.17;;;9.60;99.90;;;;;;4993779;28;20041;-66
2023/12/28 03:16:28;;;;;;;1.70;1.00;;;9.60;99.90;;;;;;4993790;28;20035;-66
2023/12/28 03:18:54;;;;;;;1.35;1.23;;;9.60;99.90;;;;;;4993710;28;20038;-66
2023/12/28 03:21:20;;;;;;;1.98;1.10;;;9.60;99.90;;;;;;4993659;28;20039;-66
2023/12/28 03:23:45;;;;;;;2.17;0.98;;;9.90;99.90;;;;;;4992035;28;20474;-66
2023/12/28 03:26:11;;;;;;;2.75;1.30;;;9.60;99.90;;;;;;4993808;28;20042;-68
2023/12/28 03:28:36;;;;;;;1.67;1.05;;;10.00;99.90;;;;;;4993197;28;20045;-69
2023/12/28 03:31:03;;;;;;;1.50;1.00;;;9.90;99.90;;;;;;4993492;28;20045;-67
2023/12/28 03:33:28;;;;;;;1.65;1.00;;;9.60;99.90;;;;;;4993145;28;20490;-67
2023/12/28 03:35:54;;;;;;;1.10;0.98;;;9.60;99.90;;;;;;4993385;28;20046;-67
2023/12/28 03:38:20;;;;;;;1.75;1.23;;;9.60;99.90;;;;;;4993405;28;20041;-67
2023/12/28 03:40:47;;;;;;;2.95;1.55;;;9.60;99.90;;;;;;4992133;28;20070;-67
2023/12/28 03:43:13;;;;;;;1.67;1.40;;;9.60;99.90;;;;;;4993091;28;20046;-67
2023/12/28 03:45:39;;;;;;;1.40;1.10;;;9.60;99.90;;;;;;4993065;28;20108;-67
2023/12/28 03:48:04;;;;;;;1.50;1.02;;;9.70;99.90;;;;;;4993289;28;20053;-67
2023/12/28 03:50:30;;;;;;;1.38;1.08;;;9.70;99.90;;;;;;4975408;28;20527;-67
2023/12/28 03:52:56;;;;;;;1.85;1.10;;;9.70;99.90;;;;;;4992915;28;20034;-68
2023/12/28 03:55:21;;;;;;;1.00;0.90;;;9.80;99.90;;;;;;4993145;28;20540;-68
2023/12/28 03:57:47;;;;;;;1.60;1.10;;;9.70;99.90;;;;;;4992831;28;20195;-67
2023/12/28 04:00:14;;;;;;;1.15;0.98;;;10.00;99.90;;;;;;4975299;28;20049;-68
2023/12/28 04:02:40;;;;;;;1.45;1.27;;;10.00;99.90;;;;;;4992776;28;20054;-67
2023/12/28 04:05:07;;;;;;;1.70;1.20;;;9.90;99.90;;;;;;4993053;28;20049;-68
2023/12/28 04:07:32;;;;;;;1.73;1.08;;;10.00;99.90;;;;;;4975317;28;20425;-68
2023/12/28 04:09:58;;;;;;;1.25;1.02;;;10.00;99.90;;;;;;4993010;28;20050;-68
2023/12/28 04:12:24;;;;;;;1.98;0.75;;;9.90;99.90;;;;;;4992970;28;20042;-68
2023/12/28 04:14:49;;;;;;;1.92;1.00;;;9.80;99.90;;;;;;4992842;28;20053;-67
2023/12/28 04:17:15;;;;;;;2.78;1.02;;;10.00;99.90;;;;;;4992337;28;20070;-68
2023/12/28 04:19:41;;;;;;;1.90;1.00;;;10.00;99.90;;;;;;4992721;28;20045;-68
2023/12/28 04:22:06;;;;;;;2.70;1.20;;;10.10;99.90;;;;;;4992768;28;20497;-68
2023/12/28 04:24:32;;;;;;;1.25;1.00;;;10.10;99.90;;;;;;4992904;28;20042;-67
2023/12/28 04:26:58;;;;;;;1.77;0.98;;;10.10;99.90;;;;;;4992857;28;20050;-68
2023/12/28 04:29:24;;;;;;;1.55;1.23;;;;;;;;;;4992483;28;20050;-68
2023/12/28 04:31:50;;;;;;;0.80;0.80;;;;;;;;;;4975031;28;20125;-67
2023/12/28 04:34:16;;;;;;;2.15;1.48;;;10.20;99.90;;;;;;4992306;28;20486;-68
2023/12/28 04:36:46;;;;;;;1.00;0.80;;;10.30;99.90;;;;;;4993033;28;20122;-66
2023/12/28 04:39:12;;;;;;;0.70;0.70;;;10.30;99.90;;;;;;4975325;28;20052;-67
2023/12/28 04:41:38;;;;;;;1.48;1.15;;;10.30;99.90;;;;;;4992704;28;20096;-67
2023/12/28 04:44:03;;;;;;;2.67;1.20;;;10.20;99.90;;;;;;4992637;28;20042;-66
2023/12/28 04:46:29;;;;;;;1.35;0.88;;;10.30;99.90;;;;;;4992673;28;20437;-66
2023/12/28 04:48:55;;;;;;;2.85;1.08;;;10.20;99.90;;;;;;4992531;28;20485;-66
2023/12/28 04:51:20;;;;;;;0.98;0.88;;;10.30;99.90;;;;;;4992249;28;20490;-66
2023/12/28 04:53:46;;;;;;;2.70;1.27;;;10.30;99.90;;;;;;4992616;28;20046;-66
2023/12/28 04:56:11;;;;;;;2.53;1.20;;;10.30;99.90;;;;;;4992525;28;20470;-66
2023/12/28 04:58:37;;;;;;;0.93;0.75;;;10.30;99.90;;;;;;4992589;28;20498;-66
2023/12/28 05:01:03;;;;;;;2.30;1.20;;;10.40;99.90;;;;;;4992509;28;20069;-66
2023/12/28 05:03:28;;;;;;;1.75;1.08;;;10.40;99.90;;;;;;4992412;28;20121;-66
2023/12/28 05:05:54;;;;;;;4.45;1.35;;;10.40;99.90;;;;;;4992453;28;20081;-66
2023/12/28 05:08:20;;;;;;;1.50;0.90;;;10.40;99.90;;;;;;4992432;28;20046;-66
2023/12/28 05:10:45;;;;;;;1.75;0.95;;;10.40;99.90;;;;;;4992362;28;20505;-66
2023/12/28 05:13:11;;;;;;;1.83;1.10;;;10.40;99.90;;;;;;4992460;28;20054;-66
2023/12/28 05:15:37;;;;;;;2.78;1.40;;;10.40;99.90;;;;;;4991116;28;20034;-66
2023/12/28 05:18:03;;;;;;;1.90;1.45;;;10.50;99.90;;;;;;4992313;28;20030;-67
2023/12/28 05:20:29;;;;;;;1.33;0.90;;;10.50;99.90;;;;;;4992319;28;20117;-68
2023/12/28 05:22:55;;;;;;;1.85;1.20;;;10.60;99.90;;;;;;4992343;28;20506;-68
2023/12/28 05:25:20;;;;;;;2.55;1.38;;;10.60;99.90;;;;;;4992272;28;20042;-66
2023/12/28 05:27:46;;;;;;;1.50;1.10;;;10.60;99.90;;;;;;4990671;28;20046;-67
2023/12/28 05:30:12;;;;;;;2.08;1.17;;;10.50;99.90;;;;;;4975626;28;20061;-67
2023/12/28 05:32:38;;;;;;;2.90;1.25;;;10.60;99.90;;;;;;4995599;28;20046;-66
2023/12/28 05:35:04;;;;;;;2.53;1.00;;;10.60;99.90;;;;;;4995337;28;20079;-67
2023/12/28 05:37:30;;;;;;;1.67;0.85;;;10.60;99.90;;;;;;4995379;28;20257;-67
2023/12/28 05:39:55;;;;;;;2.08;1.27;;;10.60;99.90;;;;;;4995629;28;20041;-67
2023/12/28 05:42:21;;;;;;;1.70;0.80;;;10.60;99.90;;;;;;4995561;28;20482;-67
2023/12/28 05:44:46;;;;;;;1.52;1.00;;;10.60;99.90;;;;;;4995561;28;20034;-67
2023/12/28 05:47:12;;;;;;;1.83;1.20;;;10.60;99.90;;;;;;4995767;28;20055;-67
2023/12/28 05:49:38;;;;;;;1.75;1.15;;;10.60;99.90;;;;;;4995424;28;20074;-67
2023/12/28 05:52:04;;;;;;;2.00;1.55;;;10.60;99.90;;;;;;4995394;28;20081;-67
2023/12/28 05:54:30;;;;;;;1.65;0.93;;;10.60;99.90;;;;;;4995026;28;20220;-68
2023/12/28 05:56:55;;;;;;;1.73;1.40;;;10.70;99.90;;;;;;4995377;28;20038;-67
2023/12/28 05:59:22;;;;;;;2.58;1.45;;;10.70;99.90;;;;;;4995275;28;20085;-67
2023/12/28 06:01:48;;;;;;;2.47;1.40;;;10.70;99.90;;;;;;4977452;28;20465;-67
2023/12/28 06:04:13;;;;;;;1.98;1.27;;;10.70;99.90;;;;;;4994904;28;20042;-66
2023/12/28 06:06:39;;;;;;;2.88;1.40;;;10.70;99.90;;;;;;4977687;28;20100;-66
2023/12/28 06:09:05;;;;;;;2.20;1.13;;;10.70;99.90;;;;;;4995128;28;20049;-67
2023/12/28 06:11:30;;;;;;;2.80;1.13;;;10.80;99.90;;;;;;4977310;28;20089;-66
2023/12/28 06:13:56;;;;;;;1.85;1.13;;;10.80;99.90;;;;;;4993733;28;20046;-66
2023/12/28 06:16:22;;;;;;;1.30;0.95;;;10.80;99.90;;;;;;4994869;28;20497;-66
2023/12/28 06:18:48;;;;;;;2.05;1.35;;;10.80;99.90;;;;;;4994672;28;20085;-67
2023/12/28 06:21:14;;;;;;;2.65;1.55;;;10.80;99.90;;;;;;4994811;28;20066;-67
2023/12/28 06:23:40;;;;;;;1.77;1.30;;;10.90;99.90;;;;;;4994826;28;20046;-66
2023/12/28 06:26:09;;;;;;;1.95;1.17;;;10.80;99.90;;;;;;4994794;28;20038;-66
2023/12/28 06:28:34;;;;;;;2.30;1.40;;;10.80;99.90;;;;;;4977270;28;20041;-67
2023/12/28 06:31:00;;;;;;;1.63;1.17;;;10.80;99.90;;;;;;4976933;28;20046;-66
2023/12/28 06:33:29;;;;;;;1.85;1.25;;;10.80;99.90;;;;;;4994273;28;20066;-67
2023/12/28 06:35:55;;;;;;;1.75;1.40;;;10.80;99.90;;;;;;4994568;28;20409;-67
2023/12/28 06:38:20;;;;;;;2.60;1.23;;;10.80;99.90;;;;;;4994307;28;20138;-67
2023/12/28 06:40:46;;;;;;;3.30;1.83;;;10.80;99.90;;;;;;4994083;28;20442;-66
2023/12/28 06:43:12;;;;;;;2.60;1.73;;;10.70;99.90;;;;;;4994167;28;20486;-66
2023/12/28 06:45:38;;;;;;;3.03;1.40;;;10.80;99.90;;;;;;4994210;28;20046;-66
2023/12/28 06:48:04;;;;;;;2.33;1.13;;;10.80;99.90;;;;;;4994308;28;20104;-68
2023/12/28 06:50:30;;;;;;;3.33;1.52;;;10.80;99.90;;;;;;4994328;28;20096;-67
2023/12/28 06:52:56;;;;;;;1.42;1.10;;;10.80;99.90;;;;;;4976552;28;20054;-66
2023/12/28 06:55:21;;;;;;;1.50;0.90;;;10.80;99.90;;;;;;4994194;28;20371;-67
2023/12/28 06:57:47;;;;;;;2.13;1.25;;;10.90;99.90;;;;;;4994424;28;20042;-66
2023/12/28 07:00:13;;;;;;;3.60;1.58;;;10.80;99.90;;;;;;4994130;28;20053;-66
2023/12/28 07:02:39;;;;;;;1.63;1.10;;;10.70;99.90;;;;;;4994124;28;20037;-66
2023/12/28 07:05:05;;;;;;;3.63;1.40;;;10.80;99.90;;;;;;4993723;28;20042;-68
2023/12/28 07:07:30;;;;;;;3.20;1.33;;;10.80;99.90;;;;;;4992595;28;20053;-67
2023/12/28 07:09:57;;;;;;;1.15;0.85;;;10.80;99.90;;;;;;4993619;28;20066;-69
2023/12/28 07:12:23;;;;;;;2.30;1.50;;;10.80;99.90;;;;;;4993942;28;20379;-67
2023/12/28 07:14:49;;;;;;;3.22;1.35;;;10.80;99.90;;;;;;4993806;28;20061;-68
2023/12/28 07:17:17;;;;;;;1.77;1.30;;;10.80;99.90;;;;;;4993667;28;20034;-66
2023/12/28 07:19:43;;;;;;;2.30;1.10;;;11.10;99.90;;;;;;4993442;28;20126;-66
2023/12/28 07:22:09;;;;;;;1.88;1.48;;;10.80;99.90;;;;;;4993733;28;20097;-68
2023/12/28 07:24:34;;;;;;;4.20;1.60;;;10.80;99.90;;;;;;4992125;28;20045;-66
2023/12/28 07:27:00;;;;;;;1.40;1.05;;;10.80;99.90;;;;;;4993396;28;20445;-66
2023/12/28 07:29:25;;;;;;;2.42;1.58;;;10.90;99.90;;;;;;4993602;28;20517;-67
2023/12/28 07:31:51;;;;;;;1.25;0.90;;;10.90;99.90;;;;;;4993559;28;20045;-66
2023/12/28 07:34:17;;;;;;;3.53;1.58;;;10.90;99.90;;;;;;4992989;28;20057;-65
2023/12/28 07:36:43;;;;;;;1.38;1.23;;;10.90;99.90;;;;;;4993501;28;20053;-71
2023/12/28 07:39:10;;;;;;;2.42;1.20;;;10.90;99.90;;;;;;4975992;28;20401;-66
2023/12/28 07:41:36;;;;;;;3.80;1.48;;;10.80;99.90;;;;;;4993481;28;20038;-66
2023/12/28 07:44:01;;;;;;;2.83;1.38;;;10.70;99.90;;;;;;4993357;28;20049;-66
2023/12/28 07:46:27;;;;;;;3.75;1.80;;;10.70;99.90;;;;;;4993310;28;20030;-67
2023/12/28 07:48:53;;;;;;;3.47;1.98;;;10.70;99.90;;;;;;4992916;28;20041;-66
2023/12/28 07:51:18;;;;;;;2.72;1.30;;;10.70;99.90;;;;;;4992866;28;20042;-66
2023/12/28 07:53:44;;;;;;;2.63;1.20;;;10.70;99.90;;;;;;4992152;28;20042;-66
2023/12/28 07:56:09;;;;;;;3.20;1.85;;;10.70;99.90;;;;;;4992847;28;20050;-65
2023/12/28 07:58:37;;;;;;;3.30;1.65;;;10.70;99.90;;;;;;4993097;28;20045;-65
2023/12/28 08:01:03;;;;;;;3.47;1.42;;;10.70;99.90;;;;;;4992915;28;20082;-66
2023/12/28 08:03:29;;;;;;;2.58;1.30;;;10.70;99.90;;;;;;4993145;28;20038;-66
2023/12/28 08:05:55;;;;;;;6.38;1.33;;;10.70;99.90;;;;;;4975611;28;20060;-66
2023/12/28 08:08:20;;;;;;;2.53;1.30;;;10.70;99.90;;;;;;4993144;28;20038;-67
2023/12/28 08:10:46;;;;;;;2.45;1.77;;;10.70;99.90;;;;;;4992671;28;20097;-66
2023/12/28 08:13:11;;;;;;;3.58;1.73;;;10.70;99.90;;;;;;4991492;28;20050;-67
2023/12/28 08:15:37;;;;;;;2.95;1.38;;;10.70;99.90;;;;;;4992875;28;20466;-67
2023/12/28 08:18:04;;;;;;;3.17;1.60;;;10.70;99.90;;;;;;4993018;28;20034;-67
2023/12/28 08:20:29;;;;;;;5.00;1.70;;;10.70;99.90;;;;;;4992873;28;20069;-67
2023/12/28 08:22:55;;;;;;;3.10;1.65;;;10.70;99.90;;;;;;4992887;28;20074;-67
2023/12/28 08:25:22;;;;;;;3.35;1.73;;;10.70;99.90;;;;;;4992902;28;20053;-67
2023/12/28 08:27:48;;;;;;;1.98;1.30;;;10.70;99.90;;;;;;4992970;28;20414;-67
2023/12/28 08:30:14;;;;;;;3.13;1.88;;;10.80;99.90;;;;;;4992816;28;20038;-67
2023/12/28 08:32:39;;;;;;;3.17;1.50;;;10.80;99.90;;;;;;4992609;28;20045;-67
2023/12/28 08:35:06;;;;;;;1.42;0.85;;;10.80;99.90;;;;;;4992702;28;20053;-67
2023/12/28 08:37:32;;;;;;;3.10;1.60;;;10.80;99.90;;;;;;4992743;28;20034;-67
2023/12/28 08:39:58;;;;;;;3.53;2.03;;;10.80;99.90;;;;;;4992519;28;20049;-66
2023/12/28 08:42:24;;;;;;;3.22;1.75;;;10.80;99.90;;;;;;4992294;28;20038;-66
2023/12/28 08:44:50;;;;;;;2.92;1.83;;;10.80;99.90;;;;;;4992286;28;20057;-66
2023/12/28 08:47:16;;;;;;;3.67;1.90;;;11.00;99.90;;;;;;4992106;28;20046;-66
2023/12/28 08:49:41;;;;;;;2.70;1.30;;;10.80;99.90;;;;;;4992764;28;20125;-68
2023/12/28 08:52:07;;;;;;;6.25;2.17;;;10.80;99.90;;;;;;4992627;28;20101;-67
2023/12/28 08:54:32;;;;;;;6.20;2.15;;;10.80;99.90;;;;;;4992515;28;20538;-69
2023/12/28 08:56:58;;;;;;;5.55;1.80;;;10.80;99.90;;;;;;4975034;28;20067;-68
2023/12/28 08:59:24;;;;;;;2.92;1.50;;;10.80;99.90;;;;;;4992517;28;20041;-66
2023/12/28 09:01:53;;;;;;;1.92;1.27;;;10.80;99.90;;;;;;4974966;28;20053;-67
2023/12/28 09:04:19;;;;;;;3.95;1.38;;;10.90;99.90;;;;;;4993985;28;20474;-67
2023/12/28 09:06:44;;;;;;;3.97;1.50;;;10.90;99.90;;;;;;4995927;28;20048;-67
2023/12/28 09:09:10;;;;;;;2.20;1.40;;;11.00;99.90;;;;;;4996228;28;20045;-67
2023/12/28 09:11:35;;;;;;;3.67;1.60;;;10.90;99.90;;;;;;4996139;28;20470;-67
2023/12/28 09:14:01;;;;;;;3.45;1.67;;;10.90;99.90;;;;;;4978391;28;20044;-67
2023/12/28 09:16:28;;;;;;;2.58;1.50;;;10.90;99.90;;;;;;4995785;28;20074;-68
2023/12/28 09:18:53;;;;;;;4.65;1.40;;;10.90;99.90;;;;;;4995922;28;20525;-73
2023/12/28 09:21:20;;;;;;;2.45;1.45;;;11.00;99.90;;;;;;4994791;28;20038;-70
2023/12/28 09:23:46;;;;;;;6.35;2.22;;;11.00;99.90;;;;;;4978465;28;20552;-69
2023/12/28 09:26:12;;;;;;;2.85;1.63;;;11.00;99.90;;;;;;4994461;28;20047;-66
2023/12/28 09:28:37;;;;;;;2.78;1.17;;;11.00;99.90;;;;;;4995895;28;20038;-66
2023/12/28 09:31:04;;;;;;;2.78;1.85;;;11.00;99.90;;;;;;4995821;28;20117;-66
2023/12/28 09:33:30;;;;;;;2.63;1.65;;;10.90;99.90;;;;;;4977845;28;20536;-66
2023/12/28 09:35:55;;;;;;;2.67;1.85;;;10.90;99.90;;;;;;4995220;28;20121;-66
2023/12/28 09:38:22;;;;;;;2.97;1.25;;;10.80;99.90;;;;;;4995643;28;20184;-67
2023/12/28 19:09:41;;;;;;;2.00;1.45;;;10.80;99.90;;;;;;2295707;29;22857;-82
2023/12/28 19:12:08;;;;;;;2.30;1.42;;;10.80;99.90;;;;;;4940705;29;20134;-84
2023/12/28 19:14:34;;;;;;;3.20;1.60;;;10.80;99.90;;;;;;4925184;29;20050;-85
2023/12/28 19:17:00;;;;;;;1.40;1.30;;;10.70;99.90;;;;;;4939758;29;20043;-81
2023/12/28 19:19:30;;;;;;;1.83;1.63;;;10.80;99.90;;;;;;4940220;29;20058;-81
2023/12/28 19:21:56;;;;;;;3.33;1.33;;;10.80;99.90;;;;;;4939543;29;20043;-81
2023/12/28 19:24:22;;;;;;;2.20;1.52;;;10.80;99.90;;;;;;4940220;29;20106;-81
2023/12/28 19:26:48;;;;;;;2.38;1.25;;;10.80;99.90;;;;;;4938671;29;20043;-84
2023/12/28 19:29:13;;;;;;;1.48;1.02;;;10.70;99.90;;;;;;4938326;29;20574;-84
2023/12/28 19:31:39;;;;;;;3.65;1.52;;;10.70;99.90;;;;;;4938176;29;20513;-84
2023/12/28 19:34:05;;;;;;;4.38;1.33;;;10.70;99.90;;;;;;4938315;29;20510;-85
2023/12/28 19:36:32;;;;;;;2.50;1.70;;;10.70;99.90;;;;;;4938036;29;20190;-84
2023/12/28 19:38:58;;;;;;;4.18;2.05;;;10.70;99.90;;;;;;4938584;29;20050;-86
2023/12/28 19:41:23;;;;;;;0.85;0.70;;;10.70;99.90;;;;;;4938101;29;20130;-85
2023/12/28 19:43:51;;;;;;;2.25;1.30;;;10.70;99.90;;;;;;4938658;29;20043;-81
2023/12/28 19:46:17;;;;;;;2.58;1.40;;;10.70;99.90;;;;;;4937772;29;20122;-81
2023/12/28 19:48:43;;;;;;;3.58;1.80;;;10.80;99.90;;;;;;4920913;29;20047;-82
2023/12/28 19:51:09;;;;;;;3.28;1.63;;;10.80;99.90;;;;;;4921921;29;20051;-82
2023/12/28 19:53:36;;;;;;;2.03;1.27;;;10.70;99.90;;;;;;4937402;29;20406;-81
2023/12/28 19:56:02;;;;;;;2.05;1.23;;;10.70;99.90;;;;;;4937295;29;20051;-81
2023/12/28 19:58:28;;;;;;;1.33;1.20;;;10.70;99.90;;;;;;4937386;29;20147;-80
2023/12/28 20:00:53;;;;;;;2.00;1.25;;;10.70;99.90;;;;;;4937452;29;20056;-76
2023/12/28 20:03:19;;;;;;;2.38;1.35;;;10.70;99.90;;;;;;4937061;29;20039;-75
2023/12/28 20:05:45;;;;;;;1.90;1.20;;;10.80;99.90;;;;;;4937300;29;20035;-78
2023/12/28 20:08:10;;;;;;;1.75;1.23;;;10.70;99.90;;;;;;4937401;29;20047;-77
2023/12/28 20:10:36;;;;;;;2.53;1.60;;;10.70;99.90;;;;;;4936893;29;20138;-78
2023/12/28 20:13:02;;;;;;;2.25;1.30;;;10.70;99.90;;;;;;4937288;29;20570;-78
2023/12/28 20:15:27;;;;;;;3.20;1.67;;;10.60;99.90;;;;;;4937148;29;20131;-86
2023/12/28 20:17:53;;;;;;;2.53;1.55;;;10.50;99.90;;;;;;4937538;29;20069;-87
2023/12/28 20:20:20;;;;;;;3.10;1.63;;;10.50;99.90;;;;;;4936954;29;20502;-78
2023/12/28 20:22:48;;;;;;;3.85;1.67;;;10.40;99.90;;;;;;4921311;29;20043;-78
2023/12/28 20:25:14;;;;;;;2.17;1.48;;;10.40;99.90;;;;;;4937109;29;20392;-78
2023/12/28 20:27:39;;;;;;;1.40;1.30;;;10.30;99.90;;;;;;4937176;29;20058;-73
2023/12/28 20:30:10;;;;;;;4.53;1.80;;;10.40;99.90;;;;;;4937036;29;20040;-85
2023/12/28 20:32:37;;;;;;;3.13;1.40;;;10.40;99.90;;;;;;4921537;29;20082;-80
2023/12/28 20:35:03;;;;;;;1.17;1.08;;;10.40;99.90;;;;;;4936905;29;20074;-78
2023/12/28 20:37:29;;;;;;;1.77;1.30;;;10.30;99.90;;;;;;4937079;29;20495;-82
2023/12/28 20:39:55;;;;;;;2.50;1.35;;;10.30;99.90;;;;;;4937048;29;20031;-82
2023/12/28 20:42:21;;;;;;;3.88;1.83;;;10.20;99.90;;;;;;4937124;29;20047;-81
2023/12/28 20:44:47;;;;;;;1.75;1.27;;;10.20;99.90;;;;;;4936985;29;20050;-81
2023/12/28 20:47:13;;;;;;;3.88;1.60;;;10.20;99.90;;;;;;4921181;29;20126;-81
2023/12/28 20:49:38;;;;;;;2.30;1.55;;;10.20;99.90;;;;;;4936821;29;20060;-81
2023/12/28 20:52:04;;;;;;;3.65;1.35;;;10.20;99.90;;;;;;4936922;29;20082;-82
2023/12/28 20:54:30;;;;;;;2.60;1.52;;;10.20;99.90;;;;;;4936924;29;20039;-82
2023/12/28 20:56:55;;;;;;;1.95;0.95;;;10.20;99.90;;;;;;4936970;29;20048;-82
2023/12/28 20:59:21;;;;;;;3.03;1.52;;;10.20;99.90;;;;;;4937051;28;20039;-81
2023/12/28 21:01:47;;;;;;;2.75;1.33;;;10.20;99.90;;;;;;4940723;29;20051;-81
2023/12/28 21:04:12;;;;;;;2.65;1.33;;;10.30;99.90;;;;;;4940724;29;20082;-81
2023/12/28 21:06:38;;;;;;;3.65;1.35;;;10.30;99.90;;;;;;4940346;29;20039;-82
2023/12/28 21:09:04;;;;;;;2.35;1.35;;;10.40;99.90;;;;;;4940532;29;20043;-82
2023/12/28 21:11:29;;;;;;;2.40;1.15;;;10.40;99.90;;;;;;4940281;29;20066;-81
2023/12/28 21:14:02;;;;;;;3.13;1.70;;;10.30;99.90;;;;;;4940609;29;20043;-81
2023/12/28 21:16:28;;;;;;;2.22;1.70;;;10.30;99.90;;;;;;4940661;29;20383;-81
2023/12/28 21:18:54;;;;;;;1.50;1.10;;;10.20;99.90;;;;;;4940480;29;20126;-82
2023/12/28 21:21:20;;;;;;;2.45;1.30;;;10.20;99.90;;;;;;4940403;29;20098;-82
2023/12/28 21:23:48;;;;;;;2.45;1.42;;;10.30;99.90;;;;;;4940305;29;20098;-81
2023/12/28 21:26:14;;;;;;;2.40;1.40;;;10.30;99.90;;;;;;4940209;29;20051;-82
2023/12/28 21:28:39;;;;;;;2.90;1.90;;;10.20;99.90;;;;;;4924357;29;20045;-81
2023/12/28 21:31:05;;;;;;;2.38;1.63;;;10.30;99.90;;;;;;4924274;29;20070;-82
2023/12/28 21:33:31;;;;;;;1.55;1.15;;;10.20;99.90;;;;;;4940260;29;20082;-81
2023/12/28 21:35:57;;;;;;;4.20;1.70;;;10.30;99.90;;;;;;4940178;29;20106;-79
2023/12/28 21:38:22;;;;;;;2.35;1.35;;;10.40;99.90;;;;;;4939900;29;20057;-78
2023/12/28 21:40:48;;;;;;;2.20;1.50;;;10.40;99.90;;;;;;4939962;29;20042;-79
2023/12/28 21:43:14;;;;;;;2.50;1.50;;;10.50;99.90;;;;;;4908119;29;20065;-78
2023/12/28 21:45:40;;;;;;;1.98;1.60;;;10.40;99.90;;;;;;4939582;29;20046;-78
2023/12/28 21:48:07;;;;;;;1.13;0.93;;;10.30;99.90;;;;;;4940150;29;20039;-79
2023/12/28 21:50:32;;;;;;;2.40;1.10;;;10.10;99.90;;;;;;4940103;29;20047;-79
2023/12/28 21:52:58;;;;;;;3.20;1.40;;;9.90;99.90;;;;;;4924347;29;20411;-78
2023/12/28 21:55:24;;;;;;;4.40;1.50;;;9.80;99.90;;;;;;4924447;29;20125;-79
2023/12/28 21:57:49;;;;;;;2.65;1.40;;;9.70;99.90;;;;;;4939986;29;20047;-82
2023/12/28 22:00:15;;;;;;;3.10;1.60;;;9.70;99.90;;;;;;4923918;29;20118;-82
2023/12/28 22:02:41;;;;;;;1.52;0.90;;;9.60;99.90;;;;;;4940569;29;20042;-82
2023/12/28 22:05:07;;;;;;;1.77;1.23;;;9.60;99.90;;;;;;4940036;29;20043;-80
2023/12/28 22:07:32;;;;;;;2.15;1.35;;;9.50;99.90;;;;;;4939481;29;20047;-79
2023/12/28 22:09:58;;;;;;;2.17;1.27;;;9.50;99.90;;;;;;4939578;29;20047;-80
2023/12/28 22:12:24;;;;;;;3.38;1.42;;;9.50;99.90;;;;;;4938335;29;20055;-80